Lake Winola, Pennsylvania
Current Conditions -  °F | °C
As of 11:54 AM on Tuesday 27 Jan 2015 (Local Time) from KAVP Reporting Station
Overcast Overcast  
Wind Chill: 13°   Ceiling: 8500
Heat Index: 22°   Visibility: 10mi
Dew Point:   Wind: 8mph
Humidity: 53%   Direction: 350°N
Pressure: 29.77"   Gusts: NA
Location:  41.51°N, 75.85°W
Report Text: KAVP 271654Z AUTO 35007KT 10SM OVC085 M06/M14 A2977 RMK AO2 SLP093 T10561139
Loading
Personal Weather Stations






























Interactive Weather Map New forecast layout! Learn more

10-Day Weather Forecast

Advertisements
Track Severe Weather on mobile